sensor_id;sensor_type;location;lat;lon;timestamp;P1;durP1;ratioP1;P2;durP2;ratioP2
39518;SDS011;25200;53.394;10.414;2024-02-16T00:00:47;7.70;;;4.30;;
39518;SDS011;25200;53.394;10.414;2024-02-16T00:03:13;11.80;;;4.75;;
39518;SDS011;25200;53.394;10.414;2024-02-16T00:05:39;9.60;;;4.70;;
39518;SDS011;25200;53.394;10.414;2024-02-16T00:08:04;8.55;;;4.43;;
39518;SDS011;25200;53.394;10.414;2024-02-16T00:10:30;11.70;;;5.07;;
39518;SDS011;25200;53.394;10.414;2024-02-16T00:12:56;9.98;;;4.38;;
39518;SDS011;25200;53.394;10.414;2024-02-16T00:15:21;7.93;;;4.40;;
39518;SDS011;25200;53.394;10.414;2024-02-16T00:17:47;11.07;;;4.85;;
39518;SDS011;25200;53.394;10.414;2024-02-16T00:20:13;8.88;;;3.90;;
39518;SDS011;25200;53.394;10.414;2024-02-16T00:22:39;8.65;;;4.28;;
39518;SDS011;25200;53.394;10.414;2024-02-16T00:25:05;7.07;;;4.50;;
39518;SDS011;25200;53.394;10.414;2024-02-16T00:27:31;10.15;;;4.30;;
39518;SDS011;25200;53.394;10.414;2024-02-16T00:29:56;10.30;;;4.30;;
39518;SDS011;25200;53.394;10.414;2024-02-16T00:32:22;9.40;;;4.70;;
39518;SDS011;25200;53.394;10.414;2024-02-16T00:34:49;7.20;;;4.35;;
39518;SDS011;25200;53.394;10.414;2024-02-16T00:37:18;10.07;;;4.90;;
39518;SDS011;25200;53.394;10.414;2024-02-16T00:39:44;8.05;;;4.70;;
39518;SDS011;25200;53.394;10.414;2024-02-16T00:42:09;8.88;;;4.53;;
39518;SDS011;25200;53.394;10.414;2024-02-16T00:44:36;7.55;;;4.13;;
39518;SDS011;25200;53.394;10.414;2024-02-16T00:47:02;8.60;;;4.43;;
39518;SDS011;25200;53.394;10.414;2024-02-16T00:49:30;8.00;;;4.28;;
39518;SDS011;25200;53.394;10.414;2024-02-16T00:51:56;7.00;;;3.95;;
39518;SDS011;25200;53.394;10.414;2024-02-16T00:54:22;7.72;;;3.97;;
39518;SDS011;25200;53.394;10.414;2024-02-16T00:56:48;8.13;;;4.10;;
39518;SDS011;25200;53.394;10.414;2024-02-16T00:59:13;8.15;;;4.80;;
39518;SDS011;25200;53.394;10.414;2024-02-16T01:01:39;9.23;;;4.15;;
39518;SDS011;25200;53.394;10.414;2024-02-16T01:04:05;9.82;;;4.72;;
39518;SDS011;25200;53.394;10.414;2024-02-16T01:06:32;10.23;;;4.57;;
39518;SDS011;25200;53.394;10.414;2024-02-16T01:08:58;9.55;;;4.63;;
39518;SDS011;25200;53.394;10.414;2024-02-16T01:11:23;8.70;;;4.50;;
39518;SDS011;25200;53.394;10.414;2024-02-16T01:13:49;13.45;;;4.65;;
39518;SDS011;25200;53.394;10.414;2024-02-16T01:16:17;8.38;;;4.78;;
39518;SDS011;25200;53.394;10.414;2024-02-16T01:18:43;9.45;;;4.60;;
39518;SDS011;25200;53.394;10.414;2024-02-16T01:21:10;9.48;;;4.20;;
39518;SDS011;25200;53.394;10.414;2024-02-16T01:23:36;6.93;;;4.00;;
39518;SDS011;25200;53.394;10.414;2024-02-16T01:26:01;7.93;;;4.38;;
39518;SDS011;25200;53.394;10.414;2024-02-16T01:28:27;11.57;;;4.70;;
39518;SDS011;25200;53.394;10.414;2024-02-16T01:30:53;8.63;;;4.78;;
39518;SDS011;25200;53.394;10.414;2024-02-16T01:33:21;8.98;;;4.18;;
39518;SDS011;25200;53.394;10.414;2024-02-16T01:35:47;8.02;;;4.57;;
39518;SDS011;25200;53.394;10.414;2024-02-16T01:38:13;8.75;;;3.92;;
39518;SDS011;25200;53.394;10.414;2024-02-16T01:40:38;10.77;;;4.45;;
39518;SDS011;25200;53.394;10.414;2024-02-16T01:43:04;11.68;;;4.75;;
39518;SDS011;25200;53.394;10.414;2024-02-16T01:45:30;8.18;;;4.82;;
39518;SDS011;25200;53.394;10.414;2024-02-16T01:47:55;9.55;;;4.35;;
39518;SDS011;25200;53.394;10.414;2024-02-16T01:50:22;6.65;;;4.18;;
39518;SDS011;25200;53.394;10.414;2024-02-16T01:52:48;8.55;;;4.32;;
39518;SDS011;25200;53.394;10.414;2024-02-16T01:55:15;8.73;;;4.05;;
39518;SDS011;25200;53.394;10.414;2024-02-16T01:57:45;8.95;;;3.83;;
39518;SDS011;25200;53.394;10.414;2024-02-16T02:00:12;6.50;;;3.60;;
39518;SDS011;25200;53.394;10.414;2024-02-16T02:02:39;12.32;;;4.03;;
39518;SDS011;25200;53.394;10.414;2024-02-16T02:05:08;11.15;;;4.30;;
39518;SDS011;25200;53.394;10.414;2024-02-16T02:07:34;10.10;;;4.30;;
39518;SDS011;25200;53.394;10.414;2024-02-16T02:10:00;10.07;;;4.22;;
39518;SDS011;25200;53.394;10.414;2024-02-16T02:12:25;6.90;;;3.50;;
39518;SDS011;25200;53.394;10.414;2024-02-16T02:14:51;9.25;;;4.20;;
39518;SDS011;25200;53.394;10.414;2024-02-16T02:17:17;9.70;;;3.80;;
39518;SDS011;25200;53.394;10.414;2024-02-16T02:19:44;8.85;;;3.80;;
39518;SDS011;25200;53.394;10.414;2024-02-16T02:22:13;8.63;;;4.60;;
39518;SDS011;25200;53.394;10.414;2024-02-16T02:24:40;7.55;;;3.78;;
39518;SDS011;25200;53.394;10.414;2024-02-16T02:27:06;7.53;;;3.75;;
39518;SDS011;25200;53.394;10.414;2024-02-16T02:29:32;7.50;;;3.95;;
39518;SDS011;25200;53.394;10.414;2024-02-16T02:31:58;7.65;;;3.85;;
39518;SDS011;25200;53.394;10.414;2024-02-16T02:34:24;6.60;;;3.70;;
39518;SDS011;25200;53.394;10.414;2024-02-16T02:36:50;8.45;;;3.80;;
39518;SDS011;25200;53.394;10.414;2024-02-16T02:39:15;7.22;;;4.40;;
39518;SDS011;25200;53.394;10.414;2024-02-16T02:41:41;5.95;;;3.53;;
39518;SDS011;25200;53.394;10.414;2024-02-16T02:44:06;7.65;;;3.50;;
39518;SDS011;25200;53.394;10.414;2024-02-16T02:46:32;7.13;;;3.85;;
39518;SDS011;25200;53.394;10.414;2024-02-16T02:48:57;7.93;;;3.47;;
39518;SDS011;25200;53.394;10.414;2024-02-16T02:51:23;6.82;;;3.90;;
39518;SDS011;25200;53.394;10.414;2024-02-16T02:53:49;9.38;;;3.67;;
39518;SDS011;25200;53.394;10.414;2024-02-16T02:56:14;10.50;;;3.55;;
39518;SDS011;25200;53.394;10.414;2024-02-16T02:58:40;7.20;;;4.00;;
39518;SDS011;25200;53.394;10.414;2024-02-16T03:01:05;8.50;;;4.22;;
39518;SDS011;25200;53.394;10.414;2024-02-16T03:03:33;9.15;;;4.05;;
39518;SDS011;25200;53.394;10.414;2024-02-16T03:05:59;9.40;;;3.75;;
39518;SDS011;25200;53.394;10.414;2024-02-16T03:08:24;7.75;;;3.80;;
39518;SDS011;25200;53.394;10.414;2024-02-16T03:10:50;6.80;;;3.63;;
39518;SDS011;25200;53.394;10.414;2024-02-16T03:13:16;6.88;;;3.90;;
39518;SDS011;25200;53.394;10.414;2024-02-16T03:15:44;8.48;;;3.70;;
39518;SDS011;25200;53.394;10.414;2024-02-16T03:18:10;10.40;;;3.63;;
39518;SDS011;25200;53.394;10.414;2024-02-16T03:20:36;6.68;;;3.42;;
39518;SDS011;25200;53.394;10.414;2024-02-16T03:23:01;8.80;;;4.10;;
39518;SDS011;25200;53.394;10.414;2024-02-16T03:25:28;8.30;;;4.10;;
39518;SDS011;25200;53.394;10.414;2024-02-16T03:27:53;8.63;;;3.70;;
39518;SDS011;25200;53.394;10.414;2024-02-16T03:30:19;7.15;;;4.00;;
39518;SDS011;25200;53.394;10.414;2024-02-16T03:32:48;7.00;;;3.92;;
39518;SDS011;25200;53.394;10.414;2024-02-16T03:35:15;8.40;;;3.95;;
39518;SDS011;25200;53.394;10.414;2024-02-16T03:37:44;12.73;;;4.68;;
39518;SDS011;25200;53.394;10.414;2024-02-16T03:40:10;10.68;;;4.18;;
39518;SDS011;25200;53.394;10.414;2024-02-16T03:42:37;12.57;;;4.70;;
39518;SDS011;25200;53.394;10.414;2024-02-16T03:45:06;7.78;;;3.90;;
39518;SDS011;25200;53.394;10.414;2024-02-16T03:47:32;10.85;;;4.07;;
39518;SDS011;25200;53.394;10.414;2024-02-16T03:49:58;9.82;;;4.43;;
39518;SDS011;25200;53.394;10.414;2024-02-16T03:52:24;8.43;;;4.47;;
39518;SDS011;25200;53.394;10.414;2024-02-16T03:54:49;17.63;;;5.25;;
39518;SDS011;25200;53.394;10.414;2024-02-16T03:57:16;8.75;;;4.65;;
39518;SDS011;25200;53.394;10.414;2024-02-16T03:59:45;11.40;;;4.70;;
39518;SDS011;25200;53.394;10.414;2024-02-16T04:02:11;7.32;;;4.32;;
39518;SDS011;25200;53.394;10.414;2024-02-16T04:04:40;8.35;;;4.28;;
39518;SDS011;25200;53.394;10.414;2024-02-16T04:07:06;12.13;;;4.32;;
39518;SDS011;25200;53.394;10.414;2024-02-16T04:09:33;8.20;;;4.70;;
39518;SDS011;25200;53.394;10.414;2024-02-16T04:11:59;7.78;;;4.50;;
39518;SDS011;25200;53.394;10.414;2024-02-16T04:14:25;9.43;;;3.88;;
39518;SDS011;25200;53.394;10.414;2024-02-16T04:16:51;10.48;;;4.88;;
39518;SDS011;25200;53.394;10.414;2024-02-16T04:19:17;11.27;;;4.30;;
39518;SDS011;25200;53.394;10.414;2024-02-16T04:21:42;14.10;;;5.03;;
39518;SDS011;25200;53.394;10.414;2024-02-16T04:24:08;11.95;;;4.72;;
39518;SDS011;25200;53.394;10.414;2024-02-16T04:26:34;10.30;;;4.78;;
39518;SDS011;25200;53.394;10.414;2024-02-16T04:29:00;10.88;;;4.85;;
39518;SDS011;25200;53.394;10.414;2024-02-16T04:31:26;7.65;;;4.28;;
39518;SDS011;25200;53.394;10.414;2024-02-16T04:33:51;10.85;;;4.80;;
39518;SDS011;25200;53.394;10.414;2024-02-16T04:36:18;10.93;;;4.30;;
39518;SDS011;25200;53.394;10.414;2024-02-16T04:38:44;9.23;;;4.03;;
39518;SDS011;25200;53.394;10.414;2024-02-16T04:41:09;8.18;;;3.97;;
39518;SDS011;25200;53.394;10.414;2024-02-16T04:43:35;9.85;;;4.53;;
39518;SDS011;25200;53.394;10.414;2024-02-16T04:46:01;8.00;;;4.35;;
39518;SDS011;25200;53.394;10.414;2024-02-16T04:48:27;9.75;;;4.85;;
39518;SDS011;25200;53.394;10.414;2024-02-16T04:50:54;8.88;;;4.70;;
39518;SDS011;25200;53.394;10.414;2024-02-16T04:53:19;11.02;;;4.85;;
39518;SDS011;25200;53.394;10.414;2024-02-16T04:55:45;9.52;;;4.35;;
39518;SDS011;25200;53.394;10.414;2024-02-16T04:58:10;9.80;;;4.65;;
39518;SDS011;25200;53.394;10.414;2024-02-16T05:00:37;17.48;;;5.18;;
39518;SDS011;25200;53.394;10.414;2024-02-16T05:03:03;8.13;;;4.20;;
39518;SDS011;25200;53.394;10.414;2024-02-16T05:05:29;12.00;;;4.50;;
39518;SDS011;25200;53.394;10.414;2024-02-16T05:07:55;12.50;;;4.60;;
39518;SDS011;25200;53.394;10.414;2024-02-16T05:10:22;12.30;;;4.50;;
39518;SDS011;25200;53.394;10.414;2024-02-16T05:12:47;8.55;;;4.38;;
39518;SDS011;25200;53.394;10.414;2024-02-16T05:15:13;10.95;;;4.22;;
39518;SDS011;25200;53.394;10.414;2024-02-16T05:17:39;11.65;;;4.68;;
39518;SDS011;25200;53.394;10.414;2024-02-16T05:20:11;9.70;;;4.40;;
39518;SDS011;25200;53.394;10.414;2024-02-16T05:22:43;8.68;;;4.30;;
39518;SDS011;25200;53.394;10.414;2024-02-16T05:25:10;7.68;;;4.00;;
39518;SDS011;25200;53.394;10.414;2024-02-16T05:27:39;11.70;;;4.40;;
39518;SDS011;25200;53.394;10.414;2024-02-16T05:30:05;12.85;;;4.72;;
39518;SDS011;25200;53.394;10.414;2024-02-16T05:32:36;8.00;;;3.95;;
39518;SDS011;25200;53.394;10.414;2024-02-16T05:35:05;9.45;;;4.20;;
39518;SDS011;25200;53.394;10.414;2024-02-16T05:37:42;8.40;;;4.05;;
39518;SDS011;25200;53.394;10.414;2024-02-16T05:40:12;11.65;;;3.95;;
39518;SDS011;25200;53.394;10.414;2024-02-16T05:42:50;9.23;;;3.70;;
39518;SDS011;25200;53.394;10.414;2024-02-16T05:45:16;8.20;;;4.07;;
39518;SDS011;25200;53.394;10.414;2024-02-16T05:47:44;8.25;;;3.97;;
39518;SDS011;25200;53.394;10.414;2024-02-16T05:50:10;7.50;;;4.10;;
39518;SDS011;25200;53.394;10.414;2024-02-16T05:52:37;7.00;;;3.70;;
39518;SDS011;25200;53.394;10.414;2024-02-16T05:55:03;6.60;;;3.83;;
39518;SDS011;25200;53.394;10.414;2024-02-16T05:57:30;10.93;;;4.20;;
39518;SDS011;25200;53.394;10.414;2024-02-16T05:59:55;7.20;;;3.85;;
39518;SDS011;25200;53.394;10.414;2024-02-16T06:02:21;7.53;;;3.78;;
39518;SDS011;25200;53.394;10.414;2024-02-16T06:04:50;12.88;;;4.75;;
39518;SDS011;25200;53.394;10.414;2024-02-16T06:07:16;9.27;;;4.38;;
39518;SDS011;25200;53.394;10.414;2024-02-16T06:09:41;11.30;;;3.78;;
39518;SDS011;25200;53.394;10.414;2024-02-16T06:12:07;9.10;;;4.07;;
39518;SDS011;25200;53.394;10.414;2024-02-16T06:14:34;7.47;;;3.70;;
39518;SDS011;25200;53.394;10.414;2024-02-16T06:17:01;11.10;;;3.58;;
39518;SDS011;25200;53.394;10.414;2024-02-16T06:19:27;8.27;;;3.70;;
39518;SDS011;25200;53.394;10.414;2024-02-16T06:21:53;8.98;;;4.00;;
39518;SDS011;25200;53.394;10.414;2024-02-16T06:24:20;8.52;;;3.85;;
39518;SDS011;25200;53.394;10.414;2024-02-16T06:26:46;9.85;;;3.70;;
39518;SDS011;25200;53.394;10.414;2024-02-16T06:29:12;10.18;;;3.53;;
39518;SDS011;25200;53.394;10.414;2024-02-16T06:31:38;5.53;;;3.10;;
39518;SDS011;25200;53.394;10.414;2024-02-16T06:34:04;11.30;;;3.75;;
39518;SDS011;25200;53.394;10.414;2024-02-16T06:36:30;8.43;;;3.50;;
39518;SDS011;25200;53.394;10.414;2024-02-16T06:38:55;8.10;;;4.18;;
39518;SDS011;25200;53.394;10.414;2024-02-16T06:41:21;12.40;;;5.50;;
39518;SDS011;25200;53.394;10.414;2024-02-16T06:43:46;15.82;;;6.47;;
39518;SDS011;25200;53.394;10.414;2024-02-16T06:46:12;16.27;;;7.20;;
39518;SDS011;25200;53.394;10.414;2024-02-16T06:48:37;12.20;;;6.55;;
39518;SDS011;25200;53.394;10.414;2024-02-16T06:51:03;14.90;;;7.50;;
39518;SDS011;25200;53.394;10.414;2024-02-16T06:53:29;17.65;;;8.57;;
39518;SDS011;25200;53.394;10.414;2024-02-16T06:55:54;15.13;;;6.50;;
39518;SDS011;25200;53.394;10.414;2024-02-16T06:58:20;10.90;;;5.43;;
39518;SDS011;25200;53.394;10.414;2024-02-16T07:00:45;11.07;;;5.90;;
39518;SDS011;25200;53.394;10.414;2024-02-16T07:03:12;10.35;;;4.57;;
39518;SDS011;25200;53.394;10.414;2024-02-16T07:05:37;10.13;;;4.15;;
39518;SDS011;25200;53.394;10.414;2024-02-16T07:08:05;11.60;;;5.20;;
39518;SDS011;25200;53.394;10.414;2024-02-16T07:10:32;8.32;;;4.00;;
39518;SDS011;25200;53.394;10.414;2024-02-16T07:12:58;10.55;;;4.90;;
39518;SDS011;25200;53.394;10.414;2024-02-16T07:15:24;13.57;;;5.38;;
39518;SDS011;25200;53.394;10.414;2024-02-16T07:17:51;12.60;;;5.70;;
39518;SDS011;25200;53.394;10.414;2024-02-16T07:20:16;11.32;;;6.07;;
39518;SDS011;25200;53.394;10.414;2024-02-16T07:22:43;11.50;;;5.50;;
39518;SDS011;25200;53.394;10.414;2024-02-16T07:25:11;8.32;;;5.00;;
39518;SDS011;25200;53.394;10.414;2024-02-16T07:27:37;8.25;;;4.45;;
39518;SDS011;25200;53.394;10.414;2024-02-16T07:30:03;9.32;;;4.10;;
39518;SDS011;25200;53.394;10.414;2024-02-16T07:32:29;10.90;;;4.53;;
39518;SDS011;25200;53.394;10.414;2024-02-16T07:34:55;9.77;;;4.60;;
39518;SDS011;25200;53.394;10.414;2024-02-16T07:37:21;8.55;;;4.05;;
39518;SDS011;25200;53.394;10.414;2024-02-16T07:39:47;7.47;;;3.58;;
39518;SDS011;25200;53.394;10.414;2024-02-16T07:42:12;8.07;;;4.35;;
39518;SDS011;25200;53.394;10.414;2024-02-16T07:44:38;9.40;;;4.47;;
39518;SDS011;25200;53.394;10.414;2024-02-16T07:47:04;10.57;;;4.78;;
39518;SDS011;25200;53.394;10.414;2024-02-16T07:49:30;9.48;;;5.00;;
39518;SDS011;25200;53.394;10.414;2024-02-16T07:51:56;8.18;;;4.43;;
39518;SDS011;25200;53.394;10.414;2024-02-16T07:54:22;10.48;;;4.20;;
39518;SDS011;25200;53.394;10.414;2024-02-16T07:56:48;8.27;;;4.03;;
39518;SDS011;25200;53.394;10.414;2024-02-16T07:59:14;7.78;;;4.18;;
39518;SDS011;25200;53.394;10.414;2024-02-16T08:01:40;7.78;;;3.90;;
39518;SDS011;25200;53.394;10.414;2024-02-16T08:04:09;6.93;;;3.67;;
39518;SDS011;25200;53.394;10.414;2024-02-16T08:06:35;9.32;;;3.72;;
39518;SDS011;25200;53.394;10.414;2024-02-16T08:09:00;9.15;;;4.45;;
39518;SDS011;25200;53.394;10.414;2024-02-16T08:11:27;7.88;;;3.90;;
39518;SDS011;25200;53.394;10.414;2024-02-16T08:13:53;6.97;;;3.22;;
39518;SDS011;25200;53.394;10.414;2024-02-16T08:16:20;7.88;;;3.20;;
39518;SDS011;25200;53.394;10.414;2024-02-16T08:18:46;7.43;;;3.55;;
39518;SDS011;25200;53.394;10.414;2024-02-16T08:21:12;8.80;;;3.53;;
39518;SDS011;25200;53.394;10.414;2024-02-16T08:23:37;8.45;;;3.50;;
39518;SDS011;25200;53.394;10.414;2024-02-16T08:26:03;9.00;;;4.18;;
39518;SDS011;25200;53.394;10.414;2024-02-16T08:28:29;6.90;;;3.63;;
39518;SDS011;25200;53.394;10.414;2024-02-16T08:30:54;10.50;;;3.90;;
39518;SDS011;25200;53.394;10.414;2024-02-16T08:33:20;7.05;;;3.53;;
39518;SDS011;25200;53.394;10.414;2024-02-16T08:35:46;7.60;;;3.58;;
39518;SDS011;25200;53.394;10.414;2024-02-16T08:38:11;7.65;;;3.20;;
39518;SDS011;25200;53.394;10.414;2024-02-16T08:40:37;9.45;;;3.42;;
39518;SDS011;25200;53.394;10.414;2024-02-16T08:43:06;7.05;;;3.05;;
39518;SDS011;25200;53.394;10.414;2024-02-16T08:45:34;6.68;;;3.13;;
39518;SDS011;25200;53.394;10.414;2024-02-16T08:48:00;8.23;;;3.17;;
39518;SDS011;25200;53.394;10.414;2024-02-16T08:50:28;7.45;;;3.10;;
39518;SDS011;25200;53.394;10.414;2024-02-16T08:52:54;6.28;;;2.88;;
39518;SDS011;25200;53.394;10.414;2024-02-16T08:55:20;6.82;;;2.67;;
39518;SDS011;25200;53.394;10.414;2024-02-16T08:57:46;7.07;;;3.10;;
39518;SDS011;25200;53.394;10.414;2024-02-16T09:00:11;7.95;;;2.70;;
39518;SDS011;25200;53.394;10.414;2024-02-16T09:02:37;4.70;;;2.22;;
39518;SDS011;25200;53.394;10.414;2024-02-16T09:05:04;6.70;;;2.42;;
39518;SDS011;25200;53.394;10.414;2024-02-16T09:07:30;6.05;;;2.50;;
39518;SDS011;25200;53.394;10.414;2024-02-16T09:09:55;5.15;;;2.40;;
39518;SDS011;25200;53.394;10.414;2024-02-16T09:12:21;7.78;;;2.20;;
39518;SDS011;25200;53.394;10.414;2024-02-16T09:14:47;6.55;;;2.20;;
39518;SDS011;25200;53.394;10.414;2024-02-16T09:17:13;7.55;;;2.10;;
39518;SDS011;25200;53.394;10.414;2024-02-16T09:19:39;5.70;;;2.00;;
39518;SDS011;25200;53.394;10.414;2024-02-16T09:22:04;6.03;;;2.20;;
39518;SDS011;25200;53.394;10.414;2024-02-16T09:24:31;5.75;;;2.40;;
39518;SDS011;25200;53.394;10.414;2024-02-16T09:26:57;8.38;;;2.50;;
39518;SDS011;25200;53.394;10.414;2024-02-16T09:29:28;5.57;;;2.20;;
39518;SDS011;25200;53.394;10.414;2024-02-16T09:31:54;4.50;;;2.08;;
39518;SDS011;25200;53.394;10.414;2024-02-16T09:34:19;5.55;;;2.03;;
39518;SDS011;25200;53.394;10.414;2024-02-16T09:36:45;7.03;;;2.50;;
39518;SDS011;25200;53.394;10.414;2024-02-16T09:39:11;5.28;;;2.00;;
39518;SDS011;25200;53.394;10.414;2024-02-16T09:41:36;4.65;;;1.95;;
39518;SDS011;25200;53.394;10.414;2024-02-16T09:44:08;8.40;;;2.47;;
39518;SDS011;25200;53.394;10.414;2024-02-16T09:46:35;7.63;;;2.30;;
39518;SDS011;25200;53.394;10.414;2024-02-16T09:49:01;4.88;;;2.13;;
39518;SDS011;25200;53.394;10.414;2024-02-16T09:51:28;6.30;;;2.20;;
39518;SDS011;25200;53.394;10.414;2024-02-16T09:53:54;4.72;;;1.90;;
39518;SDS011;25200;53.394;10.414;2024-02-16T09:56:22;6.97;;;2.35;;
39518;SDS011;25200;53.394;10.414;2024-02-16T09:58:51;5.95;;;2.13;;
39518;SDS011;25200;53.394;10.414;2024-02-16T10:01:20;6.18;;;2.03;;
39518;SDS011;25200;53.394;10.414;2024-02-16T10:03:48;5.32;;;2.25;;
39518;SDS011;25200;53.394;10.414;2024-02-16T10:06:14;6.07;;;2.15;;
39518;SDS011;25200;53.394;10.414;2024-02-16T10:08:47;5.30;;;2.10;;
39518;SDS011;25200;53.394;10.414;2024-02-16T10:11:17;6.25;;;2.05;;
39518;SDS011;25200;53.394;10.414;2024-02-16T10:13:53;6.40;;;2.10;;
39518;SDS011;25200;53.394;10.414;2024-02-16T10:16:19;7.57;;;2.60;;
39518;SDS011;25200;53.394;10.414;2024-02-16T10:18:45;6.90;;;2.33;;
39518;SDS011;25200;53.394;10.414;2024-02-16T10:21:10;8.45;;;2.13;;
39518;SDS011;25200;53.394;10.414;2024-02-16T10:23:36;6.18;;;2.08;;
39518;SDS011;25200;53.394;10.414;2024-02-16T10:26:02;5.88;;;2.17;;
39518;SDS011;25200;53.394;10.414;2024-02-16T10:28:28;4.88;;;1.80;;
39518;SDS011;25200;53.394;10.414;2024-02-16T10:30:59;5.57;;;1.95;;
39518;SDS011;25200;53.394;10.414;2024-02-16T10:33:29;9.60;;;1.90;;
39518;SDS011;25200;53.394;10.414;2024-02-16T10:35:57;8.27;;;2.20;;
39518;SDS011;25200;53.394;10.414;2024-02-16T10:38:23;5.68;;;1.95;;
39518;SDS011;25200;53.394;10.414;2024-02-16T10:40:52;5.60;;;2.10;;
39518;SDS011;25200;53.394;10.414;2024-02-16T10:43:18;4.15;;;1.90;;
39518;SDS011;25200;53.394;10.414;2024-02-16T10:45:47;4.22;;;1.70;;
39518;SDS011;25200;53.394;10.414;2024-02-16T10:48:17;5.55;;;1.70;;
39518;SDS011;25200;53.394;10.414;2024-02-16T10:50:43;4.63;;;1.70;;
39518;SDS011;25200;53.394;10.414;2024-02-16T10:53:25;3.97;;;1.60;;
39518;SDS011;25200;53.394;10.414;2024-02-16T10:55:57;5.18;;;2.05;;
39518;SDS011;25200;53.394;10.414;2024-02-16T10:58:24;4.75;;;1.70;;
39518;SDS011;25200;53.394;10.414;2024-02-16T11:00:52;5.30;;;1.73;;
39518;SDS011;25200;53.394;10.414;2024-02-16T11:03:21;3.38;;;1.63;;
39518;SDS011;25200;53.394;10.414;2024-02-16T11:05:49;5.45;;;1.98;;
39518;SDS011;25200;53.394;10.414;2024-02-16T11:08:16;5.25;;;1.80;;
39518;SDS011;25200;53.394;10.414;2024-02-16T11:10:56;4.38;;;1.80;;
39518;SDS011;25200;53.394;10.414;2024-02-16T11:13:26;4.72;;;1.83;;
39518;SDS011;25200;53.394;10.414;2024-02-16T11:16:10;4.15;;;1.90;;
39518;SDS011;25200;53.394;10.414;2024-02-16T11:18:38;4.90;;;1.70;;
39518;SDS011;25200;53.394;10.414;2024-02-16T11:21:05;4.93;;;1.90;;
39518;SDS011;25200;53.394;10.414;2024-02-16T11:23:34;4.55;;;1.90;;
39518;SDS011;25200;53.394;10.414;2024-02-16T11:26:04;5.80;;;1.70;;
39518;SDS011;25200;53.394;10.414;2024-02-16T11:28:35;5.80;;;1.95;;
39518;SDS011;25200;53.394;10.414;2024-02-16T11:31:01;5.18;;;1.85;;
39518;SDS011;25200;53.394;10.414;2024-02-16T11:33:27;4.35;;;1.77;;
39518;SDS011;25200;53.394;10.414;2024-02-16T11:35:57;3.80;;;1.80;;
39518;SDS011;25200;53.394;10.414;2024-02-16T11:38:24;3.55;;;1.83;;
39518;SDS011;25200;53.394;10.414;2024-02-16T11:41:11;6.28;;;1.80;;
39518;SDS011;25200;53.394;10.414;2024-02-16T11:43:36;6.30;;;2.00;;
39518;SDS011;25200;53.394;10.414;2024-02-16T11:46:11;5.40;;;1.88;;
39518;SDS011;25200;53.394;10.414;2024-02-16T11:48:38;5.75;;;1.90;;
39518;SDS011;25200;53.394;10.414;2024-02-16T11:51:04;4.63;;;1.90;;
39518;SDS011;25200;53.394;10.414;2024-02-16T11:53:30;4.75;;;1.88;;
39518;SDS011;25200;53.394;10.414;2024-02-16T11:55:56;4.97;;;1.60;;
39518;SDS011;25200;53.394;10.414;2024-02-16T11:58:23;4.57;;;2.10;;
39518;SDS011;25200;53.394;10.414;2024-02-16T12:00:49;6.38;;;2.10;;
39518;SDS011;25200;53.394;10.414;2024-02-16T12:03:19;4.72;;;1.95;;
39518;SDS011;25200;53.394;10.414;2024-02-16T12:05:52;6.00;;;1.95;;
39518;SDS011;25200;53.394;10.414;2024-02-16T12:08:19;5.53;;;2.00;;
39518;SDS011;25200;53.394;10.414;2024-02-16T12:10:46;4.05;;;1.83;;
39518;SDS011;25200;53.394;10.414;2024-02-16T12:13:19;5.30;;;2.00;;
39518;SDS011;25200;53.394;10.414;2024-02-16T12:15:46;4.97;;;1.98;;
39518;SDS011;25200;53.394;10.414;2024-02-16T12:18:20;4.70;;;1.80;;
39518;SDS011;25200;53.394;10.414;2024-02-16T12:20:56;4.30;;;2.10;;
39518;SDS011;25200;53.394;10.414;2024-02-16T12:23:28;6.47;;;2.17;;
39518;SDS011;25200;53.394;10.414;2024-02-16T12:26:00;6.40;;;2.60;;
39518;SDS011;25200;53.394;10.414;2024-02-16T12:28:27;8.38;;;2.25;;
39518;SDS011;25200;53.394;10.414;2024-02-16T12:30:59;4.80;;;2.20;;
39518;SDS011;25200;53.394;10.414;2024-02-16T12:33:25;7.05;;;2.20;;
39518;SDS011;25200;53.394;10.414;2024-02-16T12:35:51;6.93;;;2.25;;
39518;SDS011;25200;53.394;10.414;2024-02-16T12:38:17;4.22;;;1.83;;
39518;SDS011;25200;53.394;10.414;2024-02-16T12:40:44;8.27;;;2.00;;
39518;SDS011;25200;53.394;10.414;2024-02-16T12:43:11;4.38;;;2.15;;
39518;SDS011;25200;53.394;10.414;2024-02-16T12:45:37;6.68;;;2.60;;
39518;SDS011;25200;53.394;10.414;2024-02-16T12:48:03;7.35;;;2.30;;
39518;SDS011;25200;53.394;10.414;2024-02-16T12:50:29;6.93;;;2.45;;
39518;SDS011;25200;53.394;10.414;2024-02-16T12:52:55;7.05;;;2.40;;
39518;SDS011;25200;53.394;10.414;2024-02-16T12:55:22;6.07;;;2.25;;
39518;SDS011;25200;53.394;10.414;2024-02-16T12:57:48;5.65;;;2.40;;
39518;SDS011;25200;53.394;10.414;2024-02-16T13:00:15;5.65;;;2.40;;
39518;SDS011;25200;53.394;10.414;2024-02-16T13:02:41;4.97;;;2.58;;
39518;SDS011;25200;53.394;10.414;2024-02-16T13:05:06;8.18;;;2.38;;
39518;SDS011;25200;53.394;10.414;2024-02-16T13:07:33;6.15;;;2.17;;
39518;SDS011;25200;53.394;10.414;2024-02-16T13:09:59;12.93;;;2.50;;
39518;SDS011;25200;53.394;10.414;2024-02-16T13:12:24;5.28;;;2.47;;
39518;SDS011;25200;53.394;10.414;2024-02-16T13:14:50;5.93;;;2.40;;
39518;SDS011;25200;53.394;10.414;2024-02-16T13:17:16;5.80;;;2.38;;
39518;SDS011;25200;53.394;10.414;2024-02-16T13:19:42;7.75;;;2.72;;
39518;SDS011;25200;53.394;10.414;2024-02-16T13:22:07;7.43;;;2.42;;
39518;SDS011;25200;53.394;10.414;2024-02-16T13:24:33;6.00;;;2.63;;
39518;SDS011;25200;53.394;10.414;2024-02-16T13:26:59;6.10;;;2.40;;
39518;SDS011;25200;53.394;10.414;2024-02-16T13:29:25;8.73;;;3.03;;
39518;SDS011;25200;53.394;10.414;2024-02-16T13:31:51;5.70;;;2.60;;
39518;SDS011;25200;53.394;10.414;2024-02-16T13:34:17;9.23;;;2.67;;
39518;SDS011;25200;53.394;10.414;2024-02-16T13:36:42;5.90;;;2.60;;
39518;SDS011;25200;53.394;10.414;2024-02-16T13:39:08;8.45;;;2.85;;
39518;SDS011;25200;53.394;10.414;2024-02-16T13:41:34;4.60;;;2.33;;
39518;SDS011;25200;53.394;10.414;2024-02-16T13:44:00;6.47;;;2.50;;
39518;SDS011;25200;53.394;10.414;2024-02-16T13:46:26;5.15;;;2.58;;
39518;SDS011;25200;53.394;10.414;2024-02-16T13:48:51;7.15;;;2.60;;
39518;SDS011;25200;53.394;10.414;2024-02-16T13:51:17;6.20;;;2.88;;
39518;SDS011;25200;53.394;10.414;2024-02-16T13:53:44;6.30;;;2.60;;
39518;SDS011;25200;53.394;10.414;2024-02-16T13:56:10;7.05;;;2.80;;
39518;SDS011;25200;53.394;10.414;2024-02-16T13:58:35;8.02;;;2.90;;
39518;SDS011;25200;53.394;10.414;2024-02-16T14:01:02;7.15;;;2.83;;
39518;SDS011;25200;53.394;10.414;2024-02-16T14:03:28;7.50;;;2.70;;
39518;SDS011;25200;53.394;10.414;2024-02-16T14:05:54;7.43;;;2.90;;
39518;SDS011;25200;53.394;10.414;2024-02-16T14:08:21;7.93;;;2.95;;
39518;SDS011;25200;53.394;10.414;2024-02-16T14:10:47;8.68;;;2.90;;
39518;SDS011;25200;53.394;10.414;2024-02-16T14:13:13;8.30;;;3.15;;
39518;SDS011;25200;53.394;10.414;2024-02-16T14:15:39;7.03;;;2.70;;
39518;SDS011;25200;53.394;10.414;2024-02-16T14:18:04;7.22;;;2.83;;
39518;SDS011;25200;53.394;10.414;2024-02-16T14:20:32;6.65;;;2.83;;
39518;SDS011;25200;53.394;10.414;2024-02-16T14:22:57;9.55;;;3.00;;
39518;SDS011;25200;53.394;10.414;2024-02-16T14:25:23;7.18;;;3.00;;
39518;SDS011;25200;53.394;10.414;2024-02-16T14:27:50;9.23;;;3.20;;